sensor_id;sensor_type;location;lat;lon;timestamp;temperature;humidity
12089;DHT22;6107;49.078;8.578;2023-08-20T00:00:10;22.30;99.90
12089;DHT22;6107;49.078;8.578;2023-08-20T00:02:37;22.40;99.90
12089;DHT22;6107;49.078;8.578;2023-08-20T00:05:03;22.20;99.90
12089;DHT22;6107;49.078;8.578;2023-08-20T00:07:30;22.00;99.90
12089;DHT22;6107;49.078;8.578;2023-08-20T00:09:56;22.00;99.90
12089;DHT22;6107;49.078;8.578;2023-08-20T00:12:21;22.10;99.90
12089;DHT22;6107;49.078;8.578;2023-08-20T00:14:58;22.10;99.90
12089;DHT22;6107;49.078;8.578;2023-08-20T00:17:31;22.20;99.90
12089;DHT22;6107;49.078;8.578;2023-08-20T00:19:57;21.90;99.90
12089;DHT22;6107;49.078;8.578;2023-08-20T00:22:24;22.00;99.90
12089;DHT22;6107;49.078;8.578;2023-08-20T00:24:50;22.00;99.90
12089;DHT22;6107;49.078;8.578;2023-08-20T00:27:17;22.00;99.90
12089;DHT22;6107;49.078;8.578;2023-08-20T00:29:43;22.10;99.90
12089;DHT22;6107;49.078;8.578;2023-08-20T00:32:08;22.00;99.90
12089;DHT22;6107;49.078;8.578;2023-08-20T00:34:34;21.90;99.90
12089;DHT22;6107;49.078;8.578;2023-08-20T00:37:00;21.80;99.90
12089;DHT22;6107;49.078;8.578;2023-08-20T00:39:26;21.60;99.90
12089;DHT22;6107;49.078;8.578;2023-08-20T00:41:53;21.50;99.90
12089;DHT22;6107;49.078;8.578;2023-08-20T00:44:18;21.70;99.90
12089;DHT22;6107;49.078;8.578;2023-08-20T00:46:44;21.60;99.90
12089;DHT22;6107;49.078;8.578;2023-08-20T00:49:10;21.40;99.90
12089;DHT22;6107;49.078;8.578;2023-08-20T00:51:36;21.50;99.90
12089;DHT22;6107;49.078;8.578;2023-08-20T00:54:03;21.70;99.90
12089;DHT22;6107;49.078;8.578;2023-08-20T00:56:29;21.90;99.90
12089;DHT22;6107;49.078;8.578;2023-08-20T00:58:55;21.90;99.90
12089;DHT22;6107;49.078;8.578;2023-08-20T01:01:21;22.00;99.90
12089;DHT22;6107;49.078;8.578;2023-08-20T01:03:47;21.90;99.90
12089;DHT22;6107;49.078;8.578;2023-08-20T01:09:04;21.90;99.90
12089;DHT22;6107;49.078;8.578;2023-08-20T01:11:38;21.70;99.90
12089;DHT22;6107;49.078;8.578;2023-08-20T01:14:15;21.60;99.90
12089;DHT22;6107;49.078;8.578;2023-08-20T01:16:41;21.70;99.90
12089;DHT22;6107;49.078;8.578;2023-08-20T01:19:10;21.60;99.90
12089;DHT22;6107;49.078;8.578;2023-08-20T01:21:39;21.60;99.90
12089;DHT22;6107;49.078;8.578;2023-08-20T01:29:44;21.20;99.90
12089;DHT22;6107;49.078;8.578;2023-08-20T01:32:10;21.10;99.90
12089;DHT22;6107;49.078;8.578;2023-08-20T01:34:37;21.10;99.90
12089;DHT22;6107;49.078;8.578;2023-08-20T01:37:03;21.10;99.90
12089;DHT22;6107;49.078;8.578;2023-08-20T01:39:28;21.10;99.90
12089;DHT22;6107;49.078;8.578;2023-08-20T01:41:54;21.20;99.90
12089;DHT22;6107;49.078;8.578;2023-08-20T01:44:19;21.30;99.90
12089;DHT22;6107;49.078;8.578;2023-08-20T01:46:45;21.40;99.90
12089;DHT22;6107;49.078;8.578;2023-08-20T01:49:10;21.20;99.90
12089;DHT22;6107;49.078;8.578;2023-08-20T01:51:36;21.20;99.90
12089;DHT22;6107;49.078;8.578;2023-08-20T01:54:02;21.00;99.90
12089;DHT22;6107;49.078;8.578;2023-08-20T01:56:27;21.00;99.90
12089;DHT22;6107;49.078;8.578;2023-08-20T01:58:53;21.10;99.90
12089;DHT22;6107;49.078;8.578;2023-08-20T02:01:18;21.00;99.90
12089;DHT22;6107;49.078;8.578;2023-08-20T02:03:44;20.90;99.90
12089;DHT22;6107;49.078;8.578;2023-08-20T02:06:10;20.90;99.90
12089;DHT22;6107;49.078;8.578;2023-08-20T02:08:35;21.00;99.90
12089;DHT22;6107;49.078;8.578;2023-08-20T02:11:02;21.00;99.90
12089;DHT22;6107;49.078;8.578;2023-08-20T02:13:28;20.90;99.90
12089;DHT22;6107;49.078;8.578;2023-08-20T02:16:01;21.10;99.90
12089;DHT22;6107;49.078;8.578;2023-08-20T02:18:27;21.00;99.90
12089;DHT22;6107;49.078;8.578;2023-08-20T02:20:53;20.80;99.90
12089;DHT22;6107;49.078;8.578;2023-08-20T02:23:19;20.60;99.90
12089;DHT22;6107;49.078;8.578;2023-08-20T02:25:44;20.50;99.90
12089;DHT22;6107;49.078;8.578;2023-08-20T02:28:10;20.70;99.90
12089;DHT22;6107;49.078;8.578;2023-08-20T02:30:46;20.90;99.90
12089;DHT22;6107;49.078;8.578;2023-08-20T02:33:11;21.00;99.90
12089;DHT22;6107;49.078;8.578;2023-08-20T02:35:40;20.90;99.90
12089;DHT22;6107;49.078;8.578;2023-08-20T02:38:06;20.80;99.90
12089;DHT22;6107;49.078;8.578;2023-08-20T02:40:32;20.80;99.90
12089;DHT22;6107;49.078;8.578;2023-08-20T02:42:58;20.80;99.90
12089;DHT22;6107;49.078;8.578;2023-08-20T02:45:23;20.60;99.90
12089;DHT22;6107;49.078;8.578;2023-08-20T02:47:49;20.50;99.90
12089;DHT22;6107;49.078;8.578;2023-08-20T02:50:15;20.30;99.90
12089;DHT22;6107;49.078;8.578;2023-08-20T02:52:42;20.50;99.90
12089;DHT22;6107;49.078;8.578;2023-08-20T02:55:08;20.30;99.90
12089;DHT22;6107;49.078;8.578;2023-08-20T02:57:34;20.40;99.90
12089;DHT22;6107;49.078;8.578;2023-08-20T02:59:59;20.40;99.90
12089;DHT22;6107;49.078;8.578;2023-08-20T03:02:25;20.60;99.90
12089;DHT22;6107;49.078;8.578;2023-08-20T03:04:50;20.60;99.90
12089;DHT22;6107;49.078;8.578;2023-08-20T03:07:16;20.60;99.90
12089;DHT22;6107;49.078;8.578;2023-08-20T03:09:41;20.30;99.90
12089;DHT22;6107;49.078;8.578;2023-08-20T03:12:07;20.10;99.90
12089;DHT22;6107;49.078;8.578;2023-08-20T03:14:33;20.20;99.90
12089;DHT22;6107;49.078;8.578;2023-08-20T03:16:58;20.10;99.90
12089;DHT22;6107;49.078;8.578;2023-08-20T03:19:24;20.20;99.90
12089;DHT22;6107;49.078;8.578;2023-08-20T03:21:49;19.90;99.90
12089;DHT22;6107;49.078;8.578;2023-08-20T03:24:15;19.90;99.90
12089;DHT22;6107;49.078;8.578;2023-08-20T03:26:40;20.20;99.90
12089;DHT22;6107;49.078;8.578;2023-08-20T03:29:06;20.40;99.90
12089;DHT22;6107;49.078;8.578;2023-08-20T03:31:31;20.20;99.90
12089;DHT22;6107;49.078;8.578;2023-08-20T03:33:57;20.10;99.90
12089;DHT22;6107;49.078;8.578;2023-08-20T03:36:22;19.90;99.90
12089;DHT22;6107;49.078;8.578;2023-08-20T03:38:48;19.90;99.90
12089;DHT22;6107;49.078;8.578;2023-08-20T03:41:14;20.00;99.90
12089;DHT22;6107;49.078;8.578;2023-08-20T03:43:39;20.00;99.90
12089;DHT22;6107;49.078;8.578;2023-08-20T03:46:05;19.80;99.90
12089;DHT22;6107;49.078;8.578;2023-08-20T03:48:30;19.70;99.90
12089;DHT22;6107;49.078;8.578;2023-08-20T03:50:56;19.60;99.90
12089;DHT22;6107;49.078;8.578;2023-08-20T03:53:22;19.70;99.90
12089;DHT22;6107;49.078;8.578;2023-08-20T03:55:48;19.70;99.90
12089;DHT22;6107;49.078;8.578;2023-08-20T03:58:14;19.90;99.90
12089;DHT22;6107;49.078;8.578;2023-08-20T04:00:39;19.90;99.90
12089;DHT22;6107;49.078;8.578;2023-08-20T04:03:05;19.90;99.90
12089;DHT22;6107;49.078;8.578;2023-08-20T04:05:36;19.80;99.90
12089;DHT22;6107;49.078;8.578;2023-08-20T04:08:02;19.90;99.90
12089;DHT22;6107;49.078;8.578;2023-08-20T04:10:27;20.00;99.90
12089;DHT22;6107;49.078;8.578;2023-08-20T04:12:53;20.10;99.90
12089;DHT22;6107;49.078;8.578;2023-08-20T04:15:18;20.20;99.90
12089;DHT22;6107;49.078;8.578;2023-08-20T04:17:44;20.30;99.90
12089;DHT22;6107;49.078;8.578;2023-08-20T04:20:09;20.30;99.90
12089;DHT22;6107;49.078;8.578;2023-08-20T04:22:35;20.30;99.90
12089;DHT22;6107;49.078;8.578;2023-08-20T04:25:02;20.20;99.90
12089;DHT22;6107;49.078;8.578;2023-08-20T04:27:28;20.00;99.90
12089;DHT22;6107;49.078;8.578;2023-08-20T04:29:53;20.00;99.90
12089;DHT22;6107;49.078;8.578;2023-08-20T04:32:19;20.10;99.90
12089;DHT22;6107;49.078;8.578;2023-08-20T04:34:44;20.10;99.90
12089;DHT22;6107;49.078;8.578;2023-08-20T04:37:11;20.20;99.90
12089;DHT22;6107;49.078;8.578;2023-08-20T04:39:38;20.30;99.90
12089;DHT22;6107;49.078;8.578;2023-08-20T04:42:03;20.10;99.90
12089;DHT22;6107;49.078;8.578;2023-08-20T04:44:29;20.00;99.90
12089;DHT22;6107;49.078;8.578;2023-08-20T04:46:54;19.80;99.90
12089;DHT22;6107;49.078;8.578;2023-08-20T04:49:20;19.90;99.90
12089;DHT22;6107;49.078;8.578;2023-08-20T04:51:45;20.10;99.90
12089;DHT22;6107;49.078;8.578;2023-08-20T04:54:11;20.30;99.90
12089;DHT22;6107;49.078;8.578;2023-08-20T04:56:36;20.50;99.90
12089;DHT22;6107;49.078;8.578;2023-08-20T04:59:02;20.50;99.90
12089;DHT22;6107;49.078;8.578;2023-08-20T05:01:27;20.50;99.90
12089;DHT22;6107;49.078;8.578;2023-08-20T05:03:53;20.50;99.90
12089;DHT22;6107;49.078;8.578;2023-08-20T05:06:18;20.30;99.90
12089;DHT22;6107;49.078;8.578;2023-08-20T05:08:44;20.30;99.90
12089;DHT22;6107;49.078;8.578;2023-08-20T05:11:09;20.50;99.90
12089;DHT22;6107;49.078;8.578;2023-08-20T05:13:35;20.50;99.90
12089;DHT22;6107;49.078;8.578;2023-08-20T05:16:00;20.50;99.90
12089;DHT22;6107;49.078;8.578;2023-08-20T05:18:26;20.50;99.90
12089;DHT22;6107;49.078;8.578;2023-08-20T05:20:52;20.40;99.90
12089;DHT22;6107;49.078;8.578;2023-08-20T05:23:17;20.50;99.90
12089;DHT22;6107;49.078;8.578;2023-08-20T05:25:43;20.70;99.90
12089;DHT22;6107;49.078;8.578;2023-08-20T05:28:08;20.70;99.90
12089;DHT22;6107;49.078;8.578;2023-08-20T05:30:34;20.80;99.90
12089;DHT22;6107;49.078;8.578;2023-08-20T05:33:00;20.80;99.90
12089;DHT22;6107;49.078;8.578;2023-08-20T05:35:25;20.90;99.90
12089;DHT22;6107;49.078;8.578;2023-08-20T05:37:51;20.90;99.90
12089;DHT22;6107;49.078;8.578;2023-08-20T05:40:16;21.00;99.90
12089;DHT22;6107;49.078;8.578;2023-08-20T05:42:42;21.00;99.90
12089;DHT22;6107;49.078;8.578;2023-08-20T05:45:07;21.10;99.90
12089;DHT22;6107;49.078;8.578;2023-08-20T05:47:33;21.10;99.90
12089;DHT22;6107;49.078;8.578;2023-08-20T05:49:59;21.20;99.90
12089;DHT22;6107;49.078;8.578;2023-08-20T05:52:24;21.30;99.90
12089;DHT22;6107;49.078;8.578;2023-08-20T05:54:50;21.40;99.90
12089;DHT22;6107;49.078;8.578;2023-08-20T05:57:15;21.50;99.90
12089;DHT22;6107;49.078;8.578;2023-08-20T05:59:41;21.50;99.90
12089;DHT22;6107;49.078;8.578;2023-08-20T06:02:06;21.50;99.90
12089;DHT22;6107;49.078;8.578;2023-08-20T06:04:32;21.60;99.90
12089;DHT22;6107;49.078;8.578;2023-08-20T06:06:58;21.70;99.90
12089;DHT22;6107;49.078;8.578;2023-08-20T06:09:23;21.80;99.90
12089;DHT22;6107;49.078;8.578;2023-08-20T06:11:49;21.80;99.90
12089;DHT22;6107;49.078;8.578;2023-08-20T06:14:15;21.80;99.90
12089;DHT22;6107;49.078;8.578;2023-08-20T06:16:40;21.90;99.90
12089;DHT22;6107;49.078;8.578;2023-08-20T06:19:06;22.00;99.90
12089;DHT22;6107;49.078;8.578;2023-08-20T06:21:31;23.00;99.90
12089;DHT22;6107;49.078;8.578;2023-08-20T06:23:57;23.30;99.90
12089;DHT22;6107;49.078;8.578;2023-08-20T06:26:22;22.80;99.90
12089;DHT22;6107;49.078;8.578;2023-08-20T06:28:48;22.40;99.90
12089;DHT22;6107;49.078;8.578;2023-08-20T06:31:13;22.70;99.90
12089;DHT22;6107;49.078;8.578;2023-08-20T06:33:39;22.60;99.90
12089;DHT22;6107;49.078;8.578;2023-08-20T06:36:04;23.40;99.90
12089;DHT22;6107;49.078;8.578;2023-08-20T06:38:30;23.50;99.90
12089;DHT22;6107;49.078;8.578;2023-08-20T06:40:56;23.80;99.90
12089;DHT22;6107;49.078;8.578;2023-08-20T06:43:21;23.90;99.90
12089;DHT22;6107;49.078;8.578;2023-08-20T06:45:47;23.80;99.90
12089;DHT22;6107;49.078;8.578;2023-08-20T06:48:12;24.00;99.90
12089;DHT22;6107;49.078;8.578;2023-08-20T06:50:38;24.00;99.90
12089;DHT22;6107;49.078;8.578;2023-08-20T06:53:03;23.90;99.90
12089;DHT22;6107;49.078;8.578;2023-08-20T06:55:30;23.70;99.90
12089;DHT22;6107;49.078;8.578;2023-08-20T06:57:56;23.00;99.90
12089;DHT22;6107;49.078;8.578;2023-08-20T07:00:21;23.20;99.90
12089;DHT22;6107;49.078;8.578;2023-08-20T07:02:47;23.30;99.90
12089;DHT22;6107;49.078;8.578;2023-08-20T07:05:12;23.30;99.90
12089;DHT22;6107;49.078;8.578;2023-08-20T07:07:40;23.60;99.90
12089;DHT22;6107;49.078;8.578;2023-08-20T07:10:06;23.70;99.90
12089;DHT22;6107;49.078;8.578;2023-08-20T07:12:31;23.40;99.90
12089;DHT22;6107;49.078;8.578;2023-08-20T07:14:57;23.50;99.90
12089;DHT22;6107;49.078;8.578;2023-08-20T07:17:22;23.50;99.90
12089;DHT22;6107;49.078;8.578;2023-08-20T07:19:48;23.70;99.90
12089;DHT22;6107;49.078;8.578;2023-08-20T07:22:13;23.60;99.90
12089;DHT22;6107;49.078;8.578;2023-08-20T07:24:39;23.70;99.90
12089;DHT22;6107;49.078;8.578;2023-08-20T07:27:04;23.80;99.90
12089;DHT22;6107;49.078;8.578;2023-08-20T07:29:36;23.90;99.90
12089;DHT22;6107;49.078;8.578;2023-08-20T07:32:01;24.10;99.90
12089;DHT22;6107;49.078;8.578;2023-08-20T07:34:29;24.20;99.90
12089;DHT22;6107;49.078;8.578;2023-08-20T07:36:54;24.30;99.90
12089;DHT22;6107;49.078;8.578;2023-08-20T07:39:20;24.60;99.90
12089;DHT22;6107;49.078;8.578;2023-08-20T07:41:45;24.70;99.90
12089;DHT22;6107;49.078;8.578;2023-08-20T07:44:11;24.60;99.90
12089;DHT22;6107;49.078;8.578;2023-08-20T07:46:36;24.70;99.90
12089;DHT22;6107;49.078;8.578;2023-08-20T07:49:02;24.80;99.90
12089;DHT22;6107;49.078;8.578;2023-08-20T07:51:27;25.00;99.90
12089;DHT22;6107;49.078;8.578;2023-08-20T07:53:53;25.10;99.90
12089;DHT22;6107;49.078;8.578;2023-08-20T07:56:18;25.00;99.90
12089;DHT22;6107;49.078;8.578;2023-08-20T07:58:44;25.00;99.90
12089;DHT22;6107;49.078;8.578;2023-08-20T08:01:09;25.20;99.90
12089;DHT22;6107;49.078;8.578;2023-08-20T08:03:35;25.40;99.90
12089;DHT22;6107;49.078;8.578;2023-08-20T08:06:00;25.60;99.90
12089;DHT22;6107;49.078;8.578;2023-08-20T08:08:26;25.70;99.90
12089;DHT22;6107;49.078;8.578;2023-08-20T08:10:52;25.80;99.90
12089;DHT22;6107;49.078;8.578;2023-08-20T08:13:21;25.90;99.90
12089;DHT22;6107;49.078;8.578;2023-08-20T08:15:47;26.00;99.90
12089;DHT22;6107;49.078;8.578;2023-08-20T08:18:13;25.90;99.90
12089;DHT22;6107;49.078;8.578;2023-08-20T08:20:39;26.00;99.90
12089;DHT22;6107;49.078;8.578;2023-08-20T08:23:04;26.10;99.90
12089;DHT22;6107;49.078;8.578;2023-08-20T08:25:30;26.20;99.90
12089;DHT22;6107;49.078;8.578;2023-08-20T08:27:55;26.20;99.90
12089;DHT22;6107;49.078;8.578;2023-08-20T08:30:21;26.20;99.90
12089;DHT22;6107;49.078;8.578;2023-08-20T08:32:46;26.20;99.90
12089;DHT22;6107;49.078;8.578;2023-08-20T08:35:12;26.20;99.90
12089;DHT22;6107;49.078;8.578;2023-08-20T08:37:37;26.50;99.90
12089;DHT22;6107;49.078;8.578;2023-08-20T08:40:04;26.70;99.90
12089;DHT22;6107;49.078;8.578;2023-08-20T08:42:32;26.90;99.90
12089;DHT22;6107;49.078;8.578;2023-08-20T08:44:59;26.90;99.90
12089;DHT22;6107;49.078;8.578;2023-08-20T08:47:25;27.00;99.90
12089;DHT22;6107;49.078;8.578;2023-08-20T08:49:52;27.10;99.90
12089;DHT22;6107;49.078;8.578;2023-08-20T08:52:21;27.20;99.90
12089;DHT22;6107;49.078;8.578;2023-08-20T08:54:48;27.40;99.90
12089;DHT22;6107;49.078;8.578;2023-08-20T08:57:14;27.30;99.90
12089;DHT22;6107;49.078;8.578;2023-08-20T08:59:41;27.40;99.90
12089;DHT22;6107;49.078;8.578;2023-08-20T09:02:08;27.30;99.90
12089;DHT22;6107;49.078;8.578;2023-08-20T09:04:38;27.40;99.90
12089;DHT22;6107;49.078;8.578;2023-08-20T09:07:04;27.60;99.90
12089;DHT22;6107;49.078;8.578;2023-08-20T09:09:29;27.90;99.90
12089;DHT22;6107;49.078;8.578;2023-08-20T09:11:55;28.00;99.90
12089;DHT22;6107;49.078;8.578;2023-08-20T09:14:28;28.20;99.90
12089;DHT22;6107;49.078;8.578;2023-08-20T09:17:01;28.40;99.90
12089;DHT22;6107;49.078;8.578;2023-08-20T09:19:35;28.60;99.90
12089;DHT22;6107;49.078;8.578;2023-08-20T09:22:01;28.40;99.90
12089;DHT22;6107;49.078;8.578;2023-08-20T09:27:04;28.60;99.90
12089;DHT22;6107;49.078;8.578;2023-08-20T09:29:32;29.00;99.90
12089;DHT22;6107;49.078;8.578;2023-08-20T09:32:02;28.90;99.90
12089;DHT22;6107;49.078;8.578;2023-08-20T09:34:37;29.10;99.90
12089;DHT22;6107;49.078;8.578;2023-08-20T09:37:12;28.70;99.90
12089;DHT22;6107;49.078;8.578;2023-08-20T09:39:37;29.00;99.90
12089;DHT22;6107;49.078;8.578;2023-08-20T09:42:05;29.50;99.90
12089;DHT22;6107;49.078;8.578;2023-08-20T09:44:36;29.70;99.90
12089;DHT22;6107;49.078;8.578;2023-08-20T09:47:05;29.80;99.90
12089;DHT22;6107;49.078;8.578;2023-08-20T09:49:32;29.90;99.90
12089;DHT22;6107;49.078;8.578;2023-08-20T09:51:59;30.00;99.90
12089;DHT22;6107;49.078;8.578;2023-08-20T09:54:37;30.30;99.90
12089;DHT22;6107;49.078;8.578;2023-08-20T09:57:07;30.40;99.90
12089;DHT22;6107;49.078;8.578;2023-08-20T09:59:37;30.50;99.90
12089;DHT22;6107;49.078;8.578;2023-08-20T10:02:03;30.00;99.90
12089;DHT22;6107;49.078;8.578;2023-08-20T10:04:29;29.50;99.90
12089;DHT22;6107;49.078;8.578;2023-08-20T10:06:57;30.00;99.90
12089;DHT22;6107;49.078;8.578;2023-08-20T10:09:24;30.80;99.90
12089;DHT22;6107;49.078;8.578;2023-08-20T10:11:50;30.80;99.90
12089;DHT22;6107;49.078;8.578;2023-08-20T10:14:16;30.80;99.90
12089;DHT22;6107;49.078;8.578;2023-08-20T10:16:42;30.50;99.90
12089;DHT22;6107;49.078;8.578;2023-08-20T10:19:07;31.20;99.90
12089;DHT22;6107;49.078;8.578;2023-08-20T10:21:33;31.10;99.90
12089;DHT22;6107;49.078;8.578;2023-08-20T10:24:04;31.70;99.90
12089;DHT22;6107;49.078;8.578;2023-08-20T10:26:30;31.50;99.90
12089;DHT22;6107;49.078;8.578;2023-08-20T10:32:13;31.50;99.90
12089;DHT22;6107;49.078;8.578;2023-08-20T10:34:43;31.90;99.90
12089;DHT22;6107;49.078;8.578;2023-08-20T10:37:15;32.10;99.90
12089;DHT22;6107;49.078;8.578;2023-08-20T10:39:41;32.20;99.90
12089;DHT22;6107;49.078;8.578;2023-08-20T10:42:25;32.30;99.70
12089;DHT22;6107;49.078;8.578;2023-08-20T10:47:24;32.20;99.90
12089;DHT22;6107;49.078;8.578;2023-08-20T10:49:53;32.30;99.30
12089;DHT22;6107;49.078;8.578;2023-08-20T10:52:22;32.70;99.90
12089;DHT22;6107;49.078;8.578;2023-08-20T10:54:50;32.70;99.40
12089;DHT22;6107;49.078;8.578;2023-08-20T10:57:16;32.30;98.70
12089;DHT22;6107;49.078;8.578;2023-08-20T10:59:42;32.10;99.50
12089;DHT22;6107;49.078;8.578;2023-08-20T11:02:12;32.90;99.20
12089;DHT22;6107;49.078;8.578;2023-08-20T11:04:41;33.20;98.70
12089;DHT22;6107;49.078;8.578;2023-08-20T11:07:06;33.20;96.90
12089;DHT22;6107;49.078;8.578;2023-08-20T11:09:33;33.00;99.30
12089;DHT22;6107;49.078;8.578;2023-08-20T11:11:59;33.40;98.50
12089;DHT22;6107;49.078;8.578;2023-08-20T11:14:25;33.50;96.00
12089;DHT22;6107;49.078;8.578;2023-08-20T11:16:51;33.40;97.70
12089;DHT22;6107;49.078;8.578;2023-08-20T11:19:21;33.00;97.50
12089;DHT22;6107;49.078;8.578;2023-08-20T11:21:48;32.90;98.60
12089;DHT22;6107;49.078;8.578;2023-08-20T11:24:13;33.20;98.60
12089;DHT22;6107;49.078;8.578;2023-08-20T11:26:40;33.50;96.70
12089;DHT22;6107;49.078;8.578;2023-08-20T11:29:07;33.50;94.10
12089;DHT22;6107;49.078;8.578;2023-08-20T11:31:32;33.30;96.60
12089;DHT22;6107;49.078;8.578;2023-08-20T11:33:58;33.60;94.50
12089;DHT22;6107;49.078;8.578;2023-08-20T11:36:23;33.60;95.60
12089;DHT22;6107;49.078;8.578;2023-08-20T11:38:53;34.10;95.40
12089;DHT22;6107;49.078;8.578;2023-08-20T11:41:20;33.40;95.70
12089;DHT22;6107;49.078;8.578;2023-08-20T11:43:47;33.10;94.70
12089;DHT22;6107;49.078;8.578;2023-08-20T11:46:14;32.90;95.20
12089;DHT22;6107;49.078;8.578;2023-08-20T11:49:04;33.60;96.50
12089;DHT22;6107;49.078;8.578;2023-08-20T11:51:35;33.70;95.50
12089;DHT22;6107;49.078;8.578;2023-08-20T11:54:04;33.90;95.80
12089;DHT22;6107;49.078;8.578;2023-08-20T11:56:30;34.20;95.90
12089;DHT22;6107;49.078;8.578;2023-08-20T11:58:59;34.40;95.60
12089;DHT22;6107;49.078;8.578;2023-08-20T12:01:25;34.70;94.20
12089;DHT22;6107;49.078;8.578;2023-08-20T12:03:51;34.50;92.70
12089;DHT22;6107;49.078;8.578;2023-08-20T12:06:21;35.10;94.30
12089;DHT22;6107;49.078;8.578;2023-08-20T12:08:50;34.80;93.20
12089;DHT22;6107;49.078;8.578;2023-08-20T12:11:15;34.90;91.40
12089;DHT22;6107;49.078;8.578;2023-08-20T12:13:41;35.00;92.60
12089;DHT22;6107;49.078;8.578;2023-08-20T12:16:06;35.00;92.20
12089;DHT22;6107;49.078;8.578;2023-08-20T12:18:32;34.80;92.00
12089;DHT22;6107;49.078;8.578;2023-08-20T12:20:57;35.10;91.70
12089;DHT22;6107;49.078;8.578;2023-08-20T12:23:23;35.10;90.90
12089;DHT22;6107;49.078;8.578;2023-08-20T12:25:52;35.30;85.50
12089;DHT22;6107;49.078;8.578;2023-08-20T12:28:17;34.90;88.60
12089;DHT22;6107;49.078;8.578;2023-08-20T12:30:43;35.50;90.50
12089;DHT22;6107;49.078;8.578;2023-08-20T12:33:09;35.20;90.20
12089;DHT22;6107;49.078;8.578;2023-08-20T12:35:35;35.20;90.60
12089;DHT22;6107;49.078;8.578;2023-08-20T12:38:00;35.30;86.30
12089;DHT22;6107;49.078;8.578;2023-08-20T12:40:26;34.40;84.70
12089;DHT22;6107;49.078;8.578;2023-08-20T12:42:51;35.10;87.90
12089;DHT22;6107;49.078;8.578;2023-08-20T12:45:17;35.60;91.00
12089;DHT22;6107;49.078;8.578;2023-08-20T12:47:42;36.20;89.30
12089;DHT22;6107;49.078;8.578;2023-08-20T12:50:08;36.20;87.20
12089;DHT22;6107;49.078;8.578;2023-08-20T12:52:34;36.60;87.90
12089;DHT22;6107;49.078;8.578;2023-08-20T12:55:00;36.50;86.60
12089;DHT22;6107;49.078;8.578;2023-08-20T12:57:25;35.90;82.00
12089;DHT22;6107;49.078;8.578;2023-08-20T12:59:51;35.40;86.60
12089;DHT22;6107;49.078;8.578;2023-08-20T13:02:18;36.30;89.40
12089;DHT22;6107;49.078;8.578;2023-08-20T13:04:44;36.40;82.90
12089;DHT22;6107;49.078;8.578;2023-08-20T13:07:11;36.40;82.20
12089;DHT22;6107;49.078;8.578;2023-08-20T13:09:38;36.50;84.60
12089;DHT22;6107;49.078;8.578;2023-08-20T13:12:05;36.10;83.20
12089;DHT22;6107;49.078;8.578;2023-08-20T13:14:34;36.20;82.40
12089;DHT22;6107;49.078;8.578;2023-08-20T13:17:00;36.80;82.20
12089;DHT22;6107;49.078;8.578;2023-08-20T13:19:26;37.10;79.90
12089;DHT22;6107;49.078;8.578;2023-08-20T13:21:51;36.50;72.70
12089;DHT22;6107;49.078;8.578;2023-08-20T13:24:17;36.60;80.20
12089;DHT22;6107;49.078;8.578;2023-08-20T13:26:42;36.80;80.50
12089;DHT22;6107;49.078;8.578;2023-08-20T13:29:08;37.10;84.90
12089;DHT22;6107;49.078;8.578;2023-08-20T13:31:33;37.10;80.20
12089;DHT22;6107;49.078;8.578;2023-08-20T13:34:01;36.80;78.00
12089;DHT22;6107;49.078;8.578;2023-08-20T13:36:26;36.20;78.30
12089;DHT22;6107;49.078;8.578;2023-08-20T13:38:52;36.90;79.50
12089;DHT22;6107;49.078;8.578;2023-08-20T13:41:18;37.30;75.20
12089;DHT22;6107;49.078;8.578;2023-08-20T13:43:43;37.00;78.40
12089;DHT22;6107;49.078;8.578;2023-08-20T13:46:09;36.90;78.30
12089;DHT22;6107;49.078;8.578;2023-08-20T13:48:34;36.90;78.20
12089;DHT22;6107;49.078;8.578;2023-08-20T13:51:00;37.50;74.20
12089;DHT22;6107;49.078;8.578;2023-08-20T13:53:25;37.90;73.40
12089;DHT22;6107;49.078;8.578;2023-08-20T13:55:51;37.50;74.20
12089;DHT22;6107;49.078;8.578;2023-08-20T13:58:17;37.70;69.90
12089;DHT22;6107;49.078;8.578;2023-08-20T14:00:42;36.70;67.70
12089;DHT22;6107;49.078;8.578;2023-08-20T14:03:08;36.60;74.40
12089;DHT22;6107;49.078;8.578;2023-08-20T14:05:33;36.50;72.90
12089;DHT22;6107;49.078;8.578;2023-08-20T14:07:59;37.20;73.40
12089;DHT22;6107;49.078;8.578;2023-08-20T14:10:24;37.40;69.40
12089;DHT22;6107;49.078;8.578;2023-08-20T14:12:50;37.10;69.90
12089;DHT22;6107;49.078;8.578;2023-08-20T14:15:15;37.30;70.50
12089;DHT22;6107;49.078;8.578;2023-08-20T14:17:41;36.70;71.60
12089;DHT22;6107;49.078;8.578;2023-08-20T14:20:07;35.10;75.40
12089;DHT22;6107;49.078;8.578;2023-08-20T14:22:33;36.20;74.30
12089;DHT22;6107;49.078;8.578;2023-08-20T14:24:59;37.00;71.10
12089;DHT22;6107;49.078;8.578;2023-08-20T14:27:24;37.00;70.80
12089;DHT22;6107;49.078;8.578;2023-08-20T14:29:50;37.10;70.80
12089;DHT22;6107;49.078;8.578;2023-08-20T14:32:15;37.00;66.40
12089;DHT22;6107;49.078;8.578;2023-08-20T14:34:41;36.80;70.60
12089;DHT22;6107;49.078;8.578;2023-08-20T14:37:06;37.40;67.80
12089;DHT22;6107;49.078;8.578;2023-08-20T14:39:32;37.10;71.10
12089;DHT22;6107;49.078;8.578;2023-08-20T14:41:59;37.00;69.90
12089;DHT22;6107;49.078;8.578;2023-08-20T14:44:24;37.70;69.60
12089;DHT22;6107;49.078;8.578;2023-08-20T14:46:50;37.00;67.80
12089;DHT22;6107;49.078;8.578;2023-08-20T14:49:16;37.40;68.10
12089;DHT22;6107;49.078;8.578;2023-08-20T14:51:43;37.80;70.30
12089;DHT22;6107;49.078;8.578;2023-08-20T14:54:08;37.50;70.00
12089;DHT22;6107;49.078;8.578;2023-08-20T14:56:34;38.10;67.10
12089;DHT22;6107;49.078;8.578;2023-08-20T14:58:59;38.30;67.00
12089;DHT22;6107;49.078;8.578;2023-08-20T15:01:25;38.40;67.80
12089;DHT22;6107;49.078;8.578;2023-08-20T15:03:50;38.10;66.20
12089;DHT22;6107;49.078;8.578;2023-08-20T15:06:16;38.10;66.20
12089;DHT22;6107;49.078;8.578;2023-08-20T15:08:41;37.80;68.10
12089;DHT22;6107;49.078;8.578;2023-08-20T15:11:07;37.70;68.90
12089;DHT22;6107;49.078;8.578;2023-08-20T15:13:33;38.00;65.60
12089;DHT22;6107;49.078;8.578;2023-08-20T15:15:58;37.40;69.40
12089;DHT22;6107;49.078;8.578;2023-08-20T15:18:24;37.90;67.60
12089;DHT22;6107;49.078;8.578;2023-08-20T15:20:54;37.40;64.80
12089;DHT22;6107;49.078;8.578;2023-08-20T15:23:20;37.40;67.80
12089;DHT22;6107;49.078;8.578;2023-08-20T15:25:47;37.90;67.40
12089;DHT22;6107;49.078;8.578;2023-08-20T15:28:12;38.20;65.40
12089;DHT22;6107;49.078;8.578;2023-08-20T15:30:38;38.00;66.90
12089;DHT22;6107;49.078;8.578;2023-08-20T15:33:03;37.80;65.90
12089;DHT22;6107;49.078;8.578;2023-08-20T15:35:29;38.00;65.60
12089;DHT22;6107;49.078;8.578;2023-08-20T15:37:54;37.60;64.30
12089;DHT22;6107;49.078;8.578;2023-08-20T15:40:20;36.80;64.20
12089;DHT22;6107;49.078;8.578;2023-08-20T15:42:46;36.70;65.30
12089;DHT22;6107;49.078;8.578;2023-08-20T15:45:11;36.20;66.30
12089;DHT22;6107;49.078;8.578;2023-08-20T15:47:37;37.10;67.10
12089;DHT22;6107;49.078;8.578;2023-08-20T15:50:02;37.40;67.60
12089;DHT22;6107;49.078;8.578;2023-08-20T15:52:28;37.10;71.50
12089;DHT22;6107;49.078;8.578;2023-08-20T15:54:53;36.50;67.50